createdAt,value
2019-05-10T00:00:01.888Z,1003.37
2019-05-10T00:05:03.446Z,1003.31
2019-05-10T00:10:03.061Z,1003.33
2019-05-10T00:15:02.588Z,1003.37
2019-05-10T00:20:03.137Z,1003.36
2019-05-10T00:25:04.829Z,1003.39
2019-05-10T00:30:02.794Z,1003.46
2019-05-10T00:35:03.345Z,1003.44
2019-05-10T00:40:02.874Z,1003.4
2019-05-10T00:45:03.344Z,1003.39
2019-05-10T00:50:02.849Z,1003.35
2019-05-10T00:55:17.974Z,1003.46
2019-05-10T01:00:02.683Z,1003.44
2019-05-10T01:05:03.235Z,1003.47
2019-05-10T01:10:02.743Z,1003.45
2019-05-10T01:15:03.294Z,1003.46
2019-05-10T01:20:02.866Z,1003.4
2019-05-10T01:25:03.367Z,1003.42
2019-05-10T01:30:02.867Z,1003.46
2019-05-10T01:35:03.328Z,1003.46
2019-05-10T01:40:02.887Z,1003.46
2019-05-10T01:45:03.327Z,1003.49
2019-05-10T01:50:02.851Z,1003.49
2019-05-10T01:55:03.366Z,1003.47
2019-05-10T02:00:03.089Z,1003.53
2019-05-10T02:05:02.649Z,1003.51
2019-05-10T02:10:03.169Z,1003.51
2019-05-10T02:15:02.790Z,1003.52
2019-05-10T02:20:03.460Z,1003.57
2019-05-10T02:25:03.071Z,1003.53
2019-05-10T02:30:02.583Z,1003.61
2019-05-10T02:35:03.117Z,1003.63
2019-05-10T02:40:02.570Z,1003.71
2019-05-10T02:45:03.094Z,1003.76
2019-05-10T02:50:02.601Z,1003.83
2019-05-10T02:55:03.052Z,1003.87
2019-05-10T03:00:02.572Z,1003.92
2019-05-10T03:05:03.027Z,1003.93
2019-05-10T03:10:02.546Z,1004.05
2019-05-10T03:15:03.064Z,1004.14
2019-05-10T03:20:02.723Z,1004.1
2019-05-10T03:25:03.269Z,1004.19
2019-05-10T03:30:02.777Z,1004.25
2019-05-10T03:35:03.318Z,1004.33
2019-05-10T03:40:02.769Z,1004.48
2019-05-10T03:45:03.285Z,1004.56
2019-05-10T03:50:02.733Z,1004.6
2019-05-10T03:55:03.181Z,1004.77
2019-05-10T04:00:02.635Z,1004.83
2019-05-10T04:05:03.227Z,1004.97
2019-05-10T04:10:02.760Z,1005.05
2019-05-10T04:15:03.315Z,1005.18
2019-05-10T04:20:02.759Z,1005.16
2019-05-10T04:25:03.359Z,1005.31
2019-05-10T04:30:02.845Z,1005.4
2019-05-10T04:35:03.315Z,1005.43
2019-05-10T04:40:03.165Z,1005.54
2019-05-10T04:45:02.710Z,1005.64
2019-05-10T04:50:03.217Z,1005.83
2019-05-10T04:55:02.773Z,1005.87
2019-05-10T05:00:03.283Z,1005.93
2019-05-10T05:05:02.853Z,1006.05
2019-05-10T05:10:03.454Z,1006.11
2019-05-10T05:15:02.921Z,1006.2
2019-05-10T05:20:03.408Z,1006.23
2019-05-10T05:25:03.793Z,1006.39
2019-05-10T05:30:03.383Z,1006.42
2019-05-10T05:35:02.850Z,1006.49
2019-05-10T05:40:03.335Z,1006.6
2019-05-10T05:45:02.815Z,1006.7
2019-05-10T05:50:03.315Z,1006.73
2019-05-10T05:55:03.070Z,1006.71
2019-05-10T06:00:03.985Z,1006.76
2019-05-10T06:05:02.842Z,1006.78
2019-05-10T06:10:03.381Z,1006.81
2019-05-10T06:15:02.962Z,1006.92
2019-05-10T06:20:38.301Z,1006.96
2019-05-10T06:25:03.315Z,1007.01
2019-05-10T06:30:02.893Z,1007.11
2019-05-10T06:35:03.430Z,1007.17
2019-05-10T06:40:02.955Z,1007.29
2019-05-10T06:45:04.902Z,1007.4
2019-05-10T06:50:02.812Z,1007.54
2019-05-10T06:55:04.062Z,1007.57
2019-05-10T07:00:06.410Z,1007.56
2019-05-10T07:05:03.234Z,1007.74
2019-05-10T07:10:12.439Z,1007.85
2019-05-10T07:15:03.239Z,1007.99
2019-05-10T07:20:02.777Z,1008.02
2019-05-10T07:25:05.156Z,1008.07
2019-05-10T07:30:02.863Z,1008.13
2019-05-10T07:35:03.440Z,1008.2
2019-05-10T07:40:03.713Z,1008.29
2019-05-10T07:45:03.252Z,1008.36
2019-05-10T07:50:03.790Z,1008.42
2019-05-10T07:55:02.540Z,1008.46
2019-05-10T08:00:04.193Z,1008.45
2019-05-10T08:05:04.982Z,1008.57
2019-05-10T08:10:04.878Z,1008.67
2019-05-10T08:15:02.560Z,1008.64
2019-05-10T08:20:03.075Z,1008.62
2019-05-10T08:25:02.637Z,1008.65
2019-05-10T08:30:20.229Z,1008.8
2019-05-10T08:35:05.062Z,1008.77
2019-05-10T08:40:03.253Z,1008.79
2019-05-10T08:45:05.478Z,1008.89
2019-05-10T08:50:19.731Z,1008.95
2019-05-10T08:55:02.956Z,1009.04
2019-05-10T09:00:08.590Z,1009.04
2019-05-10T09:05:02.729Z,1009.2
2019-05-10T09:10:03.307Z,1009.23
2019-05-10T09:15:09.742Z,1009.27
2019-05-10T09:20:02.875Z,1009.36
2019-05-10T09:25:03.415Z,1009.34
2019-05-10T09:30:03.138Z,1009.47
2019-05-10T09:35:07.703Z,1009.59
2019-05-10T09:40:09.246Z,1009.64
2019-05-10T09:45:03.264Z,1009.79
2019-05-10T09:50:02.770Z,1009.82
2019-05-10T09:55:04.090Z,1009.84
2019-05-10T10:00:03.270Z,1009.92
2019-05-10T10:05:02.770Z,1009.97
2019-05-10T10:10:02.481Z,1010.01
2019-05-10T10:15:02.955Z,1010.07
2019-05-10T10:20:02.444Z,1010.1
2019-05-10T10:25:03.022Z,1009.98
2019-05-10T10:30:06.520Z,1009.96
2019-05-10T10:35:02.996Z,1010.04
2019-05-10T10:40:05.407Z,1010.06
2019-05-10T10:45:02.858Z,1010.05
2019-05-10T10:50:09.222Z,1010.05
2019-05-10T10:55:05.714Z,1010.07
2019-05-10T11:00:02.815Z,1009.99
2019-05-10T11:05:03.396Z,1010.02
2019-05-10T11:10:14.721Z,1010.03
2019-05-10T11:15:02.518Z,1010.04
2019-05-10T11:20:03.049Z,1010.09
2019-05-10T11:25:09.141Z,1010.16
2019-05-10T11:30:02.929Z,1010.06
2019-05-10T11:35:05.432Z,1010.11
2019-05-10T11:40:03.181Z,1010.12
2019-05-10T11:45:02.706Z,1010.16
2019-05-10T11:50:06.265Z,1010.22
2019-05-10T11:55:03.294Z,1010.29
2019-05-10T12:00:02.809Z,1010.3
2019-05-10T12:05:10.810Z,1010.31
2019-05-10T12:10:14.198Z,1010.39
2019-05-10T12:15:04.306Z,1010.36
2019-05-10T12:20:03.146Z,1010.24
2019-05-10T12:25:27.226Z,1010.21
2019-05-10T12:30:03.379Z,1010.25
2019-05-10T12:35:02.995Z,1010.25
2019-05-10T12:40:09.871Z,1010.28
2019-05-10T12:45:03.142Z,1010.38
2019-05-10T12:50:03.605Z,1010.27
2019-05-10T12:55:03.176Z,1010.25
2019-05-10T13:00:06.698Z,1010.27
2019-05-10T13:05:02.968Z,1010.28
2019-05-10T13:10:03.558Z,1010.36
2019-05-10T13:15:02.519Z,1010.36
2019-05-10T13:20:03.074Z,1010.44
2019-05-10T13:25:02.585Z,1010.53
2019-05-10T13:30:03.125Z,1010.58
2019-05-10T13:35:02.613Z,1010.61
2019-05-10T13:40:05.649Z,1010.69
2019-05-10T13:45:03.198Z,1010.73
2019-05-10T13:50:02.713Z,1010.8
2019-05-10T13:55:03.256Z,1010.88
2019-05-10T14:00:02.784Z,1011.01
2019-05-10T14:05:03.211Z,1010.97
2019-05-10T14:10:02.735Z,1011.06
2019-05-10T14:15:08.598Z,1011.13
2019-05-10T14:20:02.809Z,1011.12
2019-05-10T14:25:03.350Z,1011.23
2019-05-10T14:30:07.166Z,1011.14
2019-05-10T14:35:03.326Z,1011.24
2019-05-10T14:40:02.855Z,1011.18
2019-05-10T14:45:03.385Z,1011.14
2019-05-10T14:50:02.909Z,1011.22
2019-05-10T14:55:03.452Z,1011.17
2019-05-10T15:00:03.261Z,1011.19
2019-05-10T15:05:08.944Z,1011.21
2019-05-10T15:10:02.477Z,1011.12
2019-05-10T15:15:03.077Z,1011.1
2019-05-10T15:20:02.596Z,1011.14
2019-05-10T15:25:03.146Z,1011.11
2019-05-10T15:30:05.378Z,1011.13
2019-05-10T15:35:07.203Z,1011.21
2019-05-10T15:40:06.076Z,1011.22
2019-05-10T15:45:05.183Z,1011.19
2019-05-10T15:50:03.002Z,1011.2
2019-05-10T15:55:02.532Z,1011.24
2019-05-10T16:00:03.140Z,1011.29
2019-05-10T16:05:02.692Z,1011.24
2019-05-10T16:10:03.166Z,1011.25
2019-05-10T16:15:02.662Z,1011.3
2019-05-10T16:20:03.206Z,1011.31
2019-05-10T16:25:02.930Z,1011.3
2019-05-10T16:30:02.452Z,1011.33
2019-05-10T16:35:05.620Z,1011.35
2019-05-10T16:40:03.343Z,1011.32
2019-05-10T16:45:02.852Z,1011.3
2019-05-10T16:50:03.292Z,1011.37
2019-05-10T16:55:03.934Z,1011.32
2019-05-10T17:00:08.289Z,1011.27
2019-05-10T17:05:03.105Z,1011.21
2019-05-10T17:10:02.611Z,1011.22
2019-05-10T17:15:03.394Z,1011.19
2019-05-10T17:20:07.362Z,1011.15
2019-05-10T17:25:03.457Z,1011.09
2019-05-10T17:30:02.745Z,1011.08
2019-05-10T17:35:04.599Z,1010.97
2019-05-10T17:40:04.850Z,1011.0
2019-05-10T17:45:04.357Z,1010.99
2019-05-10T17:50:02.272Z,1011.01
2019-05-10T17:55:02.714Z,1011.13
2019-05-10T18:00:03.248Z,1011.06
2019-05-10T18:05:06.045Z,1011.16
2019-05-10T18:10:03.219Z,1011.22
2019-05-10T18:15:04.862Z,1011.21
2019-05-10T18:20:03.936Z,1011.22
2019-05-10T18:25:02.547Z,1011.31
2019-05-10T18:30:03.058Z,1011.35
2019-05-10T18:35:13.770Z,1011.45
2019-05-10T18:40:02.904Z,1011.51
2019-05-10T18:45:03.457Z,1011.51
2019-05-10T18:50:02.981Z,1011.53
2019-05-10T18:55:02.498Z,1011.56
2019-05-10T19:00:03.140Z,1011.65
2019-05-10T19:05:02.776Z,1011.67
2019-05-10T19:10:03.327Z,1011.54
2019-05-10T19:15:09.120Z,1011.52
2019-05-10T19:20:03.305Z,1011.49
2019-05-10T19:25:10.466Z,1011.47
2019-05-10T19:30:03.037Z,1011.55
2019-05-10T19:35:02.574Z,1011.63
2019-05-10T19:40:03.117Z,1011.78
2019-05-10T19:45:02.618Z,1011.88
2019-05-10T19:50:03.173Z,1011.92
2019-05-10T19:55:02.691Z,1011.99
2019-05-10T20:00:03.148Z,1011.98
2019-05-10T20:05:02.677Z,1012.02
2019-05-10T20:10:03.206Z,1012.02
2019-05-10T20:15:02.732Z,1012.03
2019-05-10T20:20:02.523Z,1012.01
2019-05-10T20:25:02.992Z,1011.99
2019-05-10T20:30:02.453Z,1012.01
2019-05-10T20:35:02.968Z,1011.95
2019-05-10T20:40:02.507Z,1011.96
2019-05-10T20:45:07.443Z,1011.92
2019-05-10T20:50:02.766Z,1011.94
2019-05-10T20:55:03.296Z,1011.95
2019-05-10T21:00:02.817Z,1011.92
2019-05-10T21:05:03.266Z,1011.92
2019-05-10T21:10:02.784Z,1011.98
2019-05-10T21:15:03.236Z,1011.88
2019-05-10T21:20:02.752Z,1011.88
2019-05-10T21:25:03.301Z,1011.74
2019-05-10T21:30:02.816Z,1011.66
2019-05-10T21:35:03.266Z,1011.71
2019-05-10T21:40:02.789Z,1011.64
2019-05-10T21:45:03.335Z,1011.61
2019-05-10T21:50:02.857Z,1011.56
2019-05-10T21:55:03.440Z,1011.47
2019-05-10T22:00:02.916Z,1011.53
2019-05-10T22:05:03.471Z,1011.55
2019-05-10T22:10:02.997Z,1011.49
2019-05-10T22:15:02.445Z,1011.47
2019-05-10T22:20:02.955Z,1011.47
2019-05-10T22:25:03.509Z,1011.46
2019-05-10T22:30:03.018Z,1011.45
2019-05-10T22:35:02.453Z,1011.66
2019-05-10T22:40:02.985Z,1011.64
2019-05-10T22:45:02.431Z,1011.62
2019-05-10T22:50:02.236Z,1011.69
2019-05-10T22:55:02.811Z,1011.71
2019-05-10T23:00:07.559Z,1011.69
2019-05-10T23:05:02.744Z,1011.63
2019-05-10T23:10:03.285Z,1011.63
2019-05-10T23:15:02.805Z,1011.59
2019-05-10T23:20:03.358Z,1011.4
2019-05-10T23:25:02.818Z,1011.13
2019-05-10T23:30:03.350Z,1011.05
2019-05-10T23:35:02.841Z,1011.12
2019-05-10T23:40:03.426Z,1010.98
2019-05-10T23:45:03.112Z,1011.21
2019-05-10T23:50:02.568Z,1011.13
2019-05-10T23:55:03.080Z,1011.08
